Terminal Aerodrome Forecast
Issued by NWS

Home | Current Version | Previous Version | Text Only | Print | Product List | Glossary On
Versions: 1 2 3 4 5 6 7 8 9 10 11 12 13 14 15 16 17 18 19 20 21
000
FTUS43 KDMX 040938 AAB
TAFFOD
TAF AMD
KFOD 040938Z 0410/0506 16007KT 5SM BR OVC005
     FM041400 19007KT P6SM OVC004
     FM041700 23007KT P6SM OVC006
     FM042200 23007KT P6SM SCT100=

USA.gov is the U.S. government's official web portal to all federal, state and local government web resources and services.